Spanish Fort, AL (36527)

12:02 AM CDT on August 25, 2016 (GMT -0500)
Driftwood | | Change Station

Elev 184 ft 30.68 °N, 87.89 °W | Updated 3 minutes ago

Clear
Clear
74.6 °F
Feels Like 73 °F
N
0.0
Wind Variable Wind from NNE

Today
High -- | Low -- °F
--% Chance of Precip.
Yesterday
High -- | Low -- °F
Precip. -- in
Pressure 30.12 in
Visibility 10.0 miles
Clouds Clear
Heat Index 73 °F
Dew Point 72 °F
Humidity 92%
Rainfall in
Snow Depth Not available.
6:24 AM 7:22 PM
Waning Gibbous, 49% visible
METAR KBFM 250453Z AUTO 09006KT 10SM CLR 28/27 A3012 RMK AO2 SLP199 T02830267
Pressure 30.12 in
Visibility 10.0 miles
Clouds Clear
Heat Index 73 °F
Dew Point 72 °F
Humidity 92%
Rainfall in
Snow Depth Not available.
6:24 AM 7:22 PM
Waning Gibbous, 49% visible
METAR KBFM 250453Z AUTO 09006KT 10SM CLR 28/27 A3012 RMK AO2 SLP199 T02830267

10-Day Weather Forecast

Almanac

Astronomy

Aug. 25, 2016 Rise Set
Actual Time
Civil Twilight
Nautical Twilight
Astronomical Twilight
Moon
Length of Visible Light
Length of Day
Tomorrow will be .
, % of the Moon is Illuminated

Today's Extremes

State Highs State Lows

Community

WunderPhotos

Upload Photos

1,934,799 photos uploaded!

WunderBlog® & News

Nearby

Air Quality

  Air Quality AQ Index Pollutant
Not available.

Snow Depth

Station Depth Elevation

Earthquake Activity

City Distance Mag. Time & Date
Minimum magnitude displayed is 2.5.

Coastal Water Temperatures

Place Temperature

Stations

Nearby Weather Stations

Station Location Temp. Windchill Dew Point Humidity Wind Precip. Elev Updated Type
                   

Watches & Warnings

There are currently no watches in effect.